CAL8970 OMAA-OEDF
Flight info
| Callsign | CAL8970 |
|---|---|
| Flight time | 0h 56m |
| Altitude | 26000 |
| Route | BOSEV N563 IMGUX P699 ORMID M556 NARMI |
| Aircraft | A21N/M-SDE2E3FGHIRWXY/LB1 |
Departure
| Time | 2026-05-07 15:30 |
|---|---|
| Airport | Zayed International Airport (OMAA) |
Arrival
| Time | 2026-05-07 16:26 |
|---|---|
| Airport | King Fahd International Airport (OEDF) |
| Time | Latitude | Longitude | Altitude | Speed | Heading |
|---|---|---|---|---|---|
| 2026-05-07 15:01 | 24.43016 | 54.66333 | 92 ft | 0 kts | 36° |
| 2026-05-07 15:02 | 24.44544 | 54.64358 | 92 ft | 0 kts | 36° |
| 2026-05-07 15:02 | 24.44713 | 54.64323 | 92 ft | 0 kts | 36° |
| 2026-05-07 15:02 | 24.44717 | 54.64316 | 92 ft | 0 kts | 57° |
| 2026-05-07 15:03 | 24.44712 | 54.64312 | 92 ft | 0 kts | 57° |
| 2026-05-07 15:04 | 24.44712 | 54.64310 | 92 ft | 0 kts | 56° |
| 2026-05-07 15:04 | 24.44713 | 54.64281 | 92 ft | 0 kts | 56° |
| 2026-05-07 15:04 | 24.44720 | 54.64230 | 92 ft | 0 kts | 71° |
| 2026-05-07 15:05 | 24.44727 | 54.64247 | 92 ft | 4 kts | 68° |
| 2026-05-07 15:05 | 24.44733 | 54.64263 | 92 ft | 0 kts | 70° |
| 2026-05-07 15:17 | 24.44731 | 54.64261 | 92 ft | 2 kts | 70° |
| 2026-05-07 15:17 | 24.44727 | 54.64245 | 92 ft | 2 kts | 70° |
| 2026-05-07 15:18 | 24.44721 | 54.64229 | 92 ft | 2 kts | 70° |
| 2026-05-07 15:18 | 24.44717 | 54.64215 | 92 ft | 1 kts | 70° |
| 2026-05-07 15:18 | 24.44710 | 54.64201 | 92 ft | 2 kts | 46° |
| 2026-05-07 15:18 | 24.44698 | 54.64191 | 92 ft | 2 kts | 23° |
| 2026-05-07 15:19 | 24.44684 | 54.64187 | 92 ft | 2 kts | 359° |
| 2026-05-07 15:19 | 24.44670 | 54.64190 | 92 ft | 1 kts | 338° |
| 2026-05-07 15:19 | 24.44657 | 54.64196 | 92 ft | 2 kts | 343° |
| 2026-05-07 15:19 | 24.44643 | 54.64200 | 92 ft | 2 kts | 343° |
| 2026-05-07 15:20 | 24.44602 | 54.64214 | 92 ft | 2 kts | 345° |
| 2026-05-07 15:20 | 24.44588 | 54.64219 | 92 ft | 2 kts | 342° |
| 2026-05-07 15:20 | 24.44574 | 54.64224 | 92 ft | 2 kts | 343° |
| 2026-05-07 15:20 | 24.44548 | 54.64233 | 92 ft | 2 kts | 343° |
| 2026-05-07 15:21 | 24.44534 | 54.64238 | 92 ft | 2 kts | 342° |
| 2026-05-07 15:21 | 24.44520 | 54.64243 | 92 ft | 2 kts | 343° |
| 2026-05-07 15:21 | 24.44505 | 54.64247 | 92 ft | 2 kts | 342° |
| 2026-05-07 15:21 | 24.44491 | 54.64252 | 92 ft | 2 kts | 343° |
| 2026-05-07 15:22 | 24.44483 | 54.64255 | 92 ft | 0 kts | 341° |
| 2026-05-07 15:22 | 24.44479 | 54.64257 | 92 ft | 0 kts | 336° |
| 2026-05-07 15:23 | 24.44484 | 54.64247 | 92 ft | 2 kts | 258° |
| 2026-05-07 15:23 | 24.44477 | 54.64246 | 92 ft | 0 kts | 148° |
| 2026-05-07 15:24 | 24.44475 | 54.64247 | 92 ft | 1 kts | 150° |
| 2026-05-07 15:24 | 24.44412 | 54.64225 | 92 ft | 13 kts | 264° |
| 2026-05-07 15:24 | 24.44448 | 54.64218 | 92 ft | 10 kts | 4° |
| 2026-05-07 15:25 | 24.44515 | 54.64218 | 92 ft | 9 kts | 358° |
| 2026-05-07 15:25 | 24.44563 | 54.64188 | 92 ft | 7 kts | 298° |
| 2026-05-07 15:25 | 24.44561 | 54.64135 | 92 ft | 6 kts | 239° |
| 2026-05-07 15:25 | 24.44480 | 54.64061 | 92 ft | 16 kts | 225° |
| 2026-05-07 15:26 | 24.44402 | 54.64077 | 92 ft | 10 kts | 158° |
| 2026-05-07 15:26 | 24.44220 | 54.64152 | 92 ft | 32 kts | 130° |
| 2026-05-07 15:26 | 24.44018 | 54.64439 | 92 ft | 60 kts | 126° |
| 2026-05-07 15:26 | 24.43799 | 54.64739 | 92 ft | 36 kts | 128° |
| 2026-05-07 15:27 | 24.43636 | 54.64965 | 92 ft | 48 kts | 127° |
| 2026-05-07 15:27 | 24.43352 | 54.65365 | 92 ft | 70 kts | 128° |
| 2026-05-07 15:27 | 24.43055 | 54.65782 | 92 ft | 66 kts | 127° |
| 2026-05-07 15:27 | 24.42781 | 54.66170 | 92 ft | 63 kts | 129° |
| 2026-05-07 15:28 | 24.42503 | 54.66553 | 92 ft | 59 kts | 128° |
| 2026-05-07 15:28 | 24.42346 | 54.66688 | 92 ft | 14 kts | 191° |
| 2026-05-07 15:28 | 24.42322 | 54.66678 | 92 ft | 0 kts | 208° |
| 2026-05-07 15:29 | 24.42319 | 54.66676 | 92 ft | 3 kts | 210° |
| 2026-05-07 15:29 | 24.42273 | 54.66594 | 92 ft | 19 kts | 296° |
| 2026-05-07 15:29 | 24.42540 | 54.66200 | 92 ft | 108 kts | 304° |
| 2026-05-07 15:29 | 24.43039 | 54.65492 | 663 ft | 115 kts | 307° |
| 2026-05-07 15:30 | 24.43468 | 54.64804 | 1384 ft | 111 kts | 306° |
| 2026-05-07 15:30 | 24.43961 | 54.64157 | 1952 ft | 123 kts | 312° |
| 2026-05-07 15:30 | 24.44599 | 54.63398 | 2444 ft | 147 kts | 309° |
| 2026-05-07 15:30 | 24.45282 | 54.62476 | 3091 ft | 168 kts | 299° |
| 2026-05-07 15:31 | 24.45935 | 54.61395 | 4017 ft | 175 kts | 301° |
| 2026-05-07 15:31 | 24.46569 | 54.60296 | 5079 ft | 175 kts | 307° |
| 2026-05-07 15:31 | 24.47317 | 54.59263 | 6096 ft | 177 kts | 310° |
| 2026-05-07 15:31 | 24.48162 | 54.58270 | 6954 ft | 187 kts | 311° |
| 2026-05-07 15:32 | 24.49083 | 54.57237 | 7864 ft | 196 kts | 312° |
| 2026-05-07 15:32 | 24.50034 | 54.56192 | 8813 ft | 201 kts | 313° |
| 2026-05-07 15:32 | 24.51045 | 54.55096 | 9659 ft | 215 kts | 312° |
| 2026-05-07 15:32 | 24.52148 | 54.53769 | 9803 ft | 263 kts | 308° |
| 2026-05-07 15:33 | 24.53377 | 54.51995 | 9784 ft | 315 kts | 303° |
| 2026-05-07 15:33 | 24.54625 | 54.49837 | 9836 ft | 359 kts | 300° |
| 2026-05-07 15:33 | 24.55972 | 54.47343 | 9996 ft | 395 kts | 299° |
| 2026-05-07 15:33 | 24.57437 | 54.44841 | 11752 ft | 381 kts | 306° |
| 2026-05-07 15:34 | 24.59005 | 54.42797 | 14268 ft | 344 kts | 312° |
| 2026-05-07 15:34 | 24.60615 | 54.41158 | 16479 ft | 311 kts | 319° |
| 2026-05-07 15:34 | 24.62248 | 54.39902 | 18376 ft | 281 kts | 327° |
| 2026-05-07 15:34 | 24.63730 | 54.38781 | 19887 ft | 253 kts | 310° |
| 2026-05-07 15:35 | 24.64759 | 54.37261 | 20663 ft | 251 kts | 297° |
| 2026-05-07 15:35 | 24.65629 | 54.35564 | 21206 ft | 263 kts | 296° |
| 2026-05-07 15:35 | 24.66566 | 54.33756 | 21604 ft | 280 kts | 297° |
| 2026-05-07 15:35 | 24.67592 | 54.31886 | 21974 ft | 298 kts | 298° |
| 2026-05-07 15:36 | 24.68735 | 54.29899 | 22327 ft | 316 kts | 300° |
| 2026-05-07 15:36 | 24.69972 | 54.27809 | 22653 ft | 334 kts | 300° |
| 2026-05-07 15:36 | 24.71286 | 54.25627 | 22959 ft | 351 kts | 301° |
| 2026-05-07 15:36 | 24.72669 | 54.23348 | 23251 ft | 368 kts | 301° |
| 2026-05-07 15:37 | 24.74135 | 54.20946 | 23546 ft | 383 kts | 301° |
| 2026-05-07 15:37 | 24.75666 | 54.18442 | 23835 ft | 398 kts | 301° |
| 2026-05-07 15:37 | 24.77246 | 54.15860 | 24106 ft | 411 kts | 301° |
| 2026-05-07 15:37 | 24.78860 | 54.13227 | 24361 ft | 424 kts | 302° |
| 2026-05-07 15:38 | 24.80537 | 54.10490 | 24600 ft | 435 kts | 302° |
| 2026-05-07 15:38 | 24.82266 | 54.07668 | 24828 ft | 446 kts | 302° |
| 2026-05-07 15:38 | 24.84031 | 54.04784 | 25037 ft | 456 kts | 302° |
| 2026-05-07 15:38 | 24.85825 | 54.01850 | 25234 ft | 466 kts | 302° |
| 2026-05-07 15:39 | 24.87642 | 53.98879 | 25416 ft | 474 kts | 302° |
| 2026-05-07 15:39 | 24.89504 | 53.95832 | 25604 ft | 481 kts | 302° |
| 2026-05-07 15:39 | 24.91391 | 53.92743 | 25774 ft | 488 kts | 302° |
| 2026-05-07 15:39 | 24.93294 | 53.89629 | 25781 ft | 496 kts | 302° |
| 2026-05-07 15:40 | 24.95231 | 53.86458 | 25786 ft | 503 kts | 302° |
| 2026-05-07 15:40 | 24.97182 | 53.83255 | 25919 ft | 502 kts | 302° |
| 2026-05-07 15:40 | 24.99101 | 53.80089 | 25957 ft | 493 kts | 302° |
| 2026-05-07 15:40 | 25.01115 | 53.77072 | 25862 ft | 491 kts | 306° |
| 2026-05-07 15:41 | 25.03328 | 53.74156 | 25823 ft | 490 kts | 310° |
| 2026-05-07 15:41 | 25.05655 | 53.71446 | 25805 ft | 487 kts | 313° |
| 2026-05-07 15:41 | 25.08035 | 53.68870 | 25798 ft | 483 kts | 315° |
| 2026-05-07 15:41 | 25.10458 | 53.66292 | 25795 ft | 480 kts | 315° |
| 2026-05-07 15:42 | 25.12883 | 53.63727 | 25792 ft | 475 kts | 316° |
| 2026-05-07 15:42 | 25.15230 | 53.61245 | 25789 ft | 465 kts | 316° |
| 2026-05-07 15:42 | 25.17565 | 53.58765 | 25790 ft | 466 kts | 315° |
| 2026-05-07 15:42 | 25.19899 | 53.56271 | 25790 ft | 468 kts | 315° |
| 2026-05-07 15:43 | 25.22257 | 53.53739 | 25789 ft | 469 kts | 315° |
| 2026-05-07 15:43 | 25.24588 | 53.51231 | 25789 ft | 469 kts | 315° |
| 2026-05-07 15:43 | 25.26938 | 53.48700 | 25789 ft | 469 kts | 315° |
| 2026-05-07 15:43 | 25.29253 | 53.46206 | 25789 ft | 469 kts | 315° |
| 2026-05-07 15:44 | 25.31598 | 53.43680 | 25789 ft | 469 kts | 315° |
| 2026-05-07 15:44 | 25.33948 | 53.41146 | 25789 ft | 469 kts | 315° |
| 2026-05-07 15:44 | 25.36277 | 53.38633 | 25789 ft | 469 kts | 315° |
| 2026-05-07 15:44 | 25.38604 | 53.36122 | 25789 ft | 469 kts | 315° |
| 2026-05-07 15:45 | 25.40922 | 53.33617 | 25790 ft | 469 kts | 315° |
| 2026-05-07 15:45 | 25.43244 | 53.31095 | 25790 ft | 469 kts | 315° |
| 2026-05-07 15:45 | 25.45590 | 53.28545 | 25788 ft | 469 kts | 314° |
| 2026-05-07 15:45 | 25.47707 | 53.25780 | 25786 ft | 469 kts | 306° |
| 2026-05-07 15:46 | 25.50596 | 53.19331 | 25787 ft | 471 kts | 288° |
| 2026-05-07 15:46 | 25.51419 | 53.15807 | 25790 ft | 471 kts | 285° |
| 2026-05-07 15:46 | 25.52160 | 53.12243 | 25790 ft | 472 kts | 284° |
| 2026-05-07 15:47 | 25.52876 | 53.08700 | 25789 ft | 472 kts | 284° |
| 2026-05-07 15:47 | 25.53592 | 53.05147 | 25789 ft | 472 kts | 284° |
| 2026-05-07 15:47 | 25.54312 | 53.01591 | 25789 ft | 471 kts | 284° |
| 2026-05-07 15:47 | 25.55038 | 52.98016 | 25789 ft | 471 kts | 284° |
| 2026-05-07 15:48 | 25.55842 | 52.94502 | 25788 ft | 470 kts | 288° |
| 2026-05-07 15:48 | 25.56868 | 52.91085 | 25788 ft | 468 kts | 292° |
| 2026-05-07 15:48 | 25.58114 | 52.87784 | 25789 ft | 467 kts | 296° |
| 2026-05-07 15:48 | 25.62237 | 52.79000 | 25790 ft | 466 kts | 292° |
| 2026-05-07 15:49 | 25.63831 | 52.75807 | 25795 ft | 476 kts | 294° |
| 2026-05-07 15:49 | 25.65435 | 52.72560 | 25792 ft | 484 kts | 294° |
| 2026-05-07 15:49 | 25.67045 | 52.69267 | 25791 ft | 491 kts | 294° |
| 2026-05-07 15:49 | 25.68671 | 52.65929 | 25790 ft | 497 kts | 294° |
| 2026-05-07 15:50 | 25.70329 | 52.62519 | 25790 ft | 503 kts | 294° |
| 2026-05-07 15:50 | 25.71986 | 52.59110 | 25790 ft | 508 kts | 294° |
| 2026-05-07 15:50 | 25.73667 | 52.55649 | 25789 ft | 510 kts | 294° |
| 2026-05-07 15:50 | 25.75349 | 52.52185 | 25789 ft | 511 kts | 294° |
| 2026-05-07 15:51 | 25.77028 | 52.48686 | 25789 ft | 511 kts | 293° |
| 2026-05-07 15:51 | 25.78665 | 52.45174 | 25789 ft | 510 kts | 293° |
| 2026-05-07 15:51 | 25.80294 | 52.41643 | 25789 ft | 510 kts | 293° |
| 2026-05-07 15:51 | 25.81920 | 52.38118 | 25789 ft | 510 kts | 293° |
| 2026-05-07 15:52 | 25.83524 | 52.34652 | 25789 ft | 510 kts | 292° |
| 2026-05-07 15:52 | 25.85204 | 52.31117 | 25789 ft | 512 kts | 295° |
| 2026-05-07 15:52 | 25.87063 | 52.27767 | 25791 ft | 514 kts | 300° |
| 2026-05-07 15:52 | 25.89197 | 52.24535 | 25791 ft | 517 kts | 304° |
| 2026-05-07 15:53 | 25.91556 | 52.21486 | 25793 ft | 518 kts | 308° |
| 2026-05-07 15:53 | 25.93975 | 52.18557 | 25791 ft | 518 kts | 309° |
| 2026-05-07 15:53 | 25.96457 | 52.15603 | 25791 ft | 518 kts | 309° |
| 2026-05-07 15:53 | 25.98898 | 52.12698 | 25790 ft | 517 kts | 309° |
| 2026-05-07 15:54 | 26.01358 | 52.09750 | 25790 ft | 516 kts | 309° |
| 2026-05-07 15:54 | 26.03759 | 52.06853 | 25754 ft | 516 kts | 309° |
| 2026-05-07 15:54 | 26.06191 | 52.03905 | 25499 ft | 516 kts | 309° |
| 2026-05-07 15:54 | 26.08625 | 52.00947 | 25260 ft | 517 kts | 309° |
| 2026-05-07 15:55 | 26.11046 | 51.98011 | 25050 ft | 520 kts | 309° |
| 2026-05-07 15:55 | 26.14579 | 51.93755 | 25079 ft | 521 kts | 309° |
| 2026-05-07 15:55 | 26.17037 | 51.90788 | 25085 ft | 521 kts | 309° |
| 2026-05-07 15:55 | 26.19481 | 51.87826 | 25087 ft | 521 kts | 309° |
| 2026-05-07 15:56 | 26.21912 | 51.84841 | 25087 ft | 520 kts | 307° |
| 2026-05-07 15:56 | 26.24160 | 51.81710 | 24861 ft | 517 kts | 302° |
| 2026-05-07 15:56 | 26.26150 | 51.78395 | 24611 ft | 514 kts | 297° |
| 2026-05-07 15:56 | 26.27880 | 51.74917 | 24362 ft | 512 kts | 293° |
| 2026-05-07 15:57 | 26.29478 | 51.71360 | 24111 ft | 511 kts | 292° |
| 2026-05-07 15:57 | 26.31021 | 51.67830 | 23879 ft | 510 kts | 292° |
| 2026-05-07 15:57 | 26.32591 | 51.64252 | 23826 ft | 510 kts | 292° |
| 2026-05-07 15:57 | 26.34152 | 51.60725 | 23825 ft | 511 kts | 292° |
| 2026-05-07 15:58 | 26.35740 | 51.57158 | 23829 ft | 511 kts | 293° |
| 2026-05-07 15:58 | 26.37244 | 51.53620 | 23834 ft | 509 kts | 290° |
| 2026-05-07 15:58 | 26.38613 | 51.49951 | 23838 ft | 507 kts | 287° |
| 2026-05-07 15:58 | 26.39815 | 51.46314 | 23841 ft | 507 kts | 286° |
| 2026-05-07 15:59 | 26.41006 | 51.42580 | 23843 ft | 506 kts | 285° |
| 2026-05-07 15:59 | 26.42162 | 51.38928 | 23844 ft | 506 kts | 285° |
| 2026-05-07 15:59 | 26.43350 | 51.35183 | 23844 ft | 506 kts | 286° |
| 2026-05-07 15:59 | 26.44514 | 51.31525 | 23845 ft | 506 kts | 285° |
| 2026-05-07 16:00 | 26.45657 | 51.27779 | 23838 ft | 503 kts | 281° |
| 2026-05-07 16:00 | 26.46048 | 51.23996 | 23832 ft | 492 kts | 263° |
| 2026-05-07 16:00 | 26.45367 | 51.20281 | 23843 ft | 482 kts | 246° |
| 2026-05-07 16:00 | 26.44129 | 51.16817 | 23849 ft | 481 kts | 244° |
| 2026-05-07 16:01 | 26.42852 | 51.13408 | 23843 ft | 481 kts | 243° |
| 2026-05-07 16:01 | 26.41584 | 51.09985 | 23604 ft | 480 kts | 244° |
| 2026-05-07 16:01 | 26.40330 | 51.06530 | 22959 ft | 481 kts | 244° |
| 2026-05-07 16:01 | 26.39097 | 51.03071 | 22183 ft | 480 kts | 244° |
| 2026-05-07 16:02 | 26.37847 | 50.99635 | 21354 ft | 482 kts | 251° |
| 2026-05-07 16:02 | 26.36627 | 50.96173 | 20561 ft | 477 kts | 252° |
| 2026-05-07 16:02 | 26.35457 | 50.92773 | 19863 ft | 472 kts | 252° |
| 2026-05-07 16:02 | 26.34285 | 50.89370 | 19194 ft | 466 kts | 252° |
| 2026-05-07 16:03 | 26.33131 | 50.86037 | 18512 ft | 461 kts | 251° |
| 2026-05-07 16:03 | 26.31977 | 50.82724 | 17768 ft | 457 kts | 251° |
| 2026-05-07 16:03 | 26.30831 | 50.79445 | 16985 ft | 453 kts | 251° |
| 2026-05-07 16:03 | 26.29694 | 50.76205 | 16238 ft | 447 kts | 250° |
| 2026-05-07 16:04 | 26.28578 | 50.73030 | 15437 ft | 441 kts | 250° |
| 2026-05-07 16:04 | 26.27458 | 50.69847 | 14641 ft | 434 kts | 250° |
| 2026-05-07 16:04 | 26.26586 | 50.66707 | 13873 ft | 427 kts | 259° |
| 2026-05-07 16:04 | 26.26263 | 50.63437 | 13234 ft | 417 kts | 270° |
| 2026-05-07 16:05 | 26.26488 | 50.60251 | 12915 ft | 413 kts | 278° |
| 2026-05-07 16:05 | 26.26888 | 50.57087 | 12854 ft | 410 kts | 279° |
| 2026-05-07 16:05 | 26.27298 | 50.54048 | 12848 ft | 388 kts | 279° |
| 2026-05-07 16:05 | 26.27684 | 50.51175 | 12844 ft | 366 kts | 279° |
| 2026-05-07 16:06 | 26.28042 | 50.48467 | 12844 ft | 346 kts | 279° |
| 2026-05-07 16:06 | 26.28381 | 50.45864 | 12837 ft | 327 kts | 279° |
| 2026-05-07 16:06 | 26.28702 | 50.43386 | 12575 ft | 318 kts | 279° |
| 2026-05-07 16:06 | 26.29012 | 50.40985 | 12244 ft | 312 kts | 279° |
| 2026-05-07 16:07 | 26.29318 | 50.38611 | 11945 ft | 305 kts | 279° |
| 2026-05-07 16:07 | 26.29612 | 50.36315 | 11650 ft | 299 kts | 279° |
| 2026-05-07 16:07 | 26.29887 | 50.34028 | 11313 ft | 295 kts | 276° |
| 2026-05-07 16:07 | 26.29998 | 50.31845 | 11000 ft | 291 kts | 270° |
| 2026-05-07 16:08 | 26.29940 | 50.29611 | 10680 ft | 286 kts | 268° |
| 2026-05-07 16:08 | 26.29833 | 50.27387 | 10363 ft | 282 kts | 267° |
| 2026-05-07 16:08 | 26.29724 | 50.25233 | 10059 ft | 277 kts | 267° |
| 2026-05-07 16:08 | 26.29618 | 50.23109 | 9758 ft | 273 kts | 268° |
| 2026-05-07 16:09 | 26.29517 | 50.21030 | 9464 ft | 269 kts | 268° |
| 2026-05-07 16:09 | 26.29417 | 50.18950 | 9175 ft | 264 kts | 268° |
| 2026-05-07 16:09 | 26.29319 | 50.16875 | 9141 ft | 280 kts | 268° |
| 2026-05-07 16:09 | 26.29220 | 50.14735 | 9616 ft | 277 kts | 268° |
| 2026-05-07 16:10 | 26.29118 | 50.12597 | 9560 ft | 272 kts | 268° |
| 2026-05-07 16:10 | 26.29019 | 50.10532 | 9298 ft | 267 kts | 268° |
| 2026-05-07 16:10 | 26.28919 | 50.08471 | 9056 ft | 260 kts | 268° |
| 2026-05-07 16:10 | 26.28823 | 50.06482 | 8822 ft | 255 kts | 268° |
| 2026-05-07 16:11 | 26.28723 | 50.04550 | 8585 ft | 250 kts | 267° |
| 2026-05-07 16:11 | 26.28586 | 50.02625 | 8323 ft | 246 kts | 268° |
| 2026-05-07 16:11 | 26.28734 | 50.00761 | 8049 ft | 239 kts | 290° |
| 2026-05-07 16:11 | 26.29361 | 49.99072 | 7800 ft | 234 kts | 297° |
| 2026-05-07 16:12 | 26.30061 | 49.97460 | 7555 ft | 230 kts | 297° |
| 2026-05-07 16:12 | 26.30731 | 49.95866 | 7309 ft | 227 kts | 296° |
| 2026-05-07 16:12 | 26.31372 | 49.94256 | 6909 ft | 228 kts | 296° |
| 2026-05-07 16:12 | 26.31979 | 49.92671 | 6195 ft | 224 kts | 295° |
| 2026-05-07 16:13 | 26.32585 | 49.91047 | 5054 ft | 236 kts | 296° |
| 2026-05-07 16:13 | 26.33207 | 49.89366 | 3869 ft | 244 kts | 296° |
| 2026-05-07 16:13 | 26.33852 | 49.87611 | 2668 ft | 253 kts | 296° |
| 2026-05-07 16:13 | 26.34501 | 49.85832 | 1838 ft | 246 kts | 296° |
| 2026-05-07 16:14 | 26.35119 | 49.84127 | 1292 ft | 230 kts | 296° |
| 2026-05-07 16:14 | 26.35694 | 49.82561 | 1037 ft | 209 kts | 302° |
| 2026-05-07 16:14 | 26.36646 | 49.81430 | 1034 ft | 196 kts | 337° |
| 2026-05-07 16:14 | 26.37880 | 49.81099 | 1177 ft | 172 kts | 355° |
| 2026-05-07 16:15 | 26.38988 | 49.80959 | 1077 ft | 146 kts | 354° |
| 2026-05-07 16:15 | 26.39925 | 49.80784 | 1026 ft | 133 kts | 353° |
| 2026-05-07 16:15 | 26.40828 | 49.80592 | 1009 ft | 132 kts | 351° |
| 2026-05-07 16:15 | 26.41760 | 49.80337 | 861 ft | 149 kts | 348° |
| 2026-05-07 16:16 | 26.42704 | 49.80042 | 650 ft | 133 kts | 348° |
| 2026-05-07 16:16 | 26.43573 | 49.79767 | 477 ft | 130 kts | 348° |
| 2026-05-07 16:16 | 26.44439 | 49.79499 | 302 ft | 126 kts | 348° |
| 2026-05-07 16:16 | 26.45257 | 49.79246 | 135 ft | 119 kts | 348° |
| 2026-05-07 16:17 | 26.46010 | 49.79022 | 86 ft | 117 kts | 346° |
| 2026-05-07 16:17 | 26.46891 | 49.78872 | 691 ft | 134 kts | 337° |
| 2026-05-07 16:17 | 26.47651 | 49.78398 | 1628 ft | 131 kts | 339° |
| 2026-05-07 16:17 | 26.48691 | 49.78022 | 1621 ft | 198 kts | 348° |
| 2026-05-07 16:18 | 26.50239 | 49.77613 | 1181 ft | 239 kts | 348° |
| 2026-05-07 16:18 | 26.51852 | 49.77151 | 763 ft | 238 kts | 347° |
| 2026-05-07 16:18 | 26.53341 | 49.76683 | 1102 ft | 206 kts | 346° |
| 2026-05-07 16:18 | 26.54671 | 49.76531 | 1311 ft | 191 kts | 9° |
| 2026-05-07 16:19 | 26.55868 | 49.77021 | 1432 ft | 179 kts | 30° |
| 2026-05-07 16:19 | 26.56810 | 49.77921 | 1519 ft | 181 kts | 47° |
| 2026-05-07 16:19 | 26.57459 | 49.79128 | 1593 ft | 185 kts | 63° |
| 2026-05-07 16:19 | 26.58027 | 49.80410 | 1701 ft | 180 kts | 44° |
| 2026-05-07 16:20 | 26.59054 | 49.80901 | 1676 ft | 153 kts | 357° |
| 2026-05-07 16:20 | 26.59963 | 49.80426 | 1585 ft | 143 kts | 327° |
| 2026-05-07 16:20 | 26.60628 | 49.79633 | 1542 ft | 140 kts | 311° |
| 2026-05-07 16:20 | 26.60963 | 49.78618 | 1498 ft | 144 kts | 272° |
| 2026-05-07 16:21 | 26.60522 | 49.77598 | 1520 ft | 154 kts | 235° |
| 2026-05-07 16:21 | 26.58074 | 49.74665 | 1609 ft | 168 kts | 207° |
| 2026-05-07 16:21 | 26.56960 | 49.74672 | 1540 ft | 162 kts | 152° |
| 2026-05-07 16:21 | 26.55633 | 49.75531 | 1511 ft | 151 kts | 142° |
| 2026-05-07 16:22 | 26.54714 | 49.76089 | 1421 ft | 152 kts | 149° |
| 2026-05-07 16:22 | 26.53740 | 49.76543 | 1106 ft | 150 kts | 160° |
| 2026-05-07 16:22 | 26.52772 | 49.76917 | 907 ft | 146 kts | 164° |
| 2026-05-07 16:22 | 26.51758 | 49.77005 | 934 ft | 147 kts | 188° |
| 2026-05-07 16:23 | 26.50753 | 49.76856 | 1092 ft | 147 kts | 186° |
| 2026-05-07 16:23 | 26.49720 | 49.76852 | 1025 ft | 147 kts | 175° |
| 2026-05-07 16:23 | 26.48719 | 49.77041 | 894 ft | 146 kts | 166° |
| 2026-05-07 16:23 | 26.47751 | 49.77352 | 777 ft | 146 kts | 161° |
| 2026-05-07 16:24 | 26.46777 | 49.77686 | 675 ft | 145 kts | 164° |
| 2026-05-07 16:24 | 26.45804 | 49.77982 | 660 ft | 146 kts | 164° |
| 2026-05-07 16:24 | 26.44842 | 49.78320 | 648 ft | 144 kts | 136° |
| 2026-05-07 16:24 | 26.44831 | 49.79206 | 598 ft | 134 kts | 18° |
| 2026-05-07 16:25 | 26.45616 | 49.78921 | 195 ft | 107 kts | 3° |
| 2026-05-07 16:25 | 26.46279 | 49.78936 | 79 ft | 68 kts | 352° |
| 2026-05-07 16:25 | 26.46533 | 49.78849 | 79 ft | 57 kts | 341° |
| 2026-05-07 16:25 | 26.47042 | 49.78708 | 79 ft | 72 kts | 2° |
| 2026-05-07 16:26 | 26.47446 | 49.78845 | 79 ft | 29 kts | 50° |
| 2026-05-07 16:26 | 26.47451 | 49.78874 | 79 ft | 4 kts | 120° |
| 2026-05-07 16:26 | 26.47421 | 49.78903 | 79 ft | 9 kts | 154° |
| 2026-05-07 16:26 | 26.47376 | 49.78921 | 79 ft | 11 kts | 162° |
| 2026-05-07 16:27 | 26.47263 | 49.78958 | 79 ft | 12 kts | 168° |
| 2026-05-07 16:27 | 26.46933 | 49.79053 | 79 ft | 103 kts | 164° |
| 2026-05-07 16:27 | 26.45946 | 49.79359 | 174 ft | 179 kts | 165° |
| 2026-05-07 16:27 | 26.44774 | 49.79711 | 688 ft | 174 kts | 163° |
| 2026-05-07 16:28 | 26.43670 | 49.80091 | 1385 ft | 165 kts | 163° |
| 2026-05-07 16:28 | 26.42549 | 49.80429 | 2044 ft | 167 kts | 165° |
| 2026-05-07 16:28 | 26.41415 | 49.80652 | 2584 ft | 165 kts | 174° |
| 2026-05-07 16:28 | 26.40283 | 49.80736 | 3090 ft | 168 kts | 172° |
| 2026-05-07 16:29 | 26.39290 | 49.81201 | 3743 ft | 149 kts | 110° |
| 2026-05-07 16:29 | 26.39922 | 49.81670 | 2845 ft | 184 kts | 339° |
| 2026-05-07 16:29 | 26.41056 | 49.81111 | 2288 ft | 179 kts | 339° |
| 2026-05-07 16:29 | 26.42083 | 49.80459 | 1860 ft | 166 kts | 331° |
| 2026-05-07 16:30 | 26.42883 | 49.79728 | 1555 ft | 141 kts | 341° |
| 2026-05-07 16:30 | 26.43917 | 49.79596 | 806 ft | 154 kts | 346° |
| 2026-05-07 16:30 | 26.44902 | 49.79265 | 475 ft | 141 kts | 5° |
| 2026-05-07 16:30 | 26.45718 | 49.79201 | 368 ft | 109 kts | 333° |
| 2026-05-07 16:31 | 26.46420 | 49.78885 | 79 ft | 102 kts | 350° |
| 2026-05-07 16:31 | 26.46906 | 49.78872 | 79 ft | 54 kts | 49° |
| 2026-05-07 16:31 | 26.47007 | 49.79211 | 79 ft | 45 kts | 69° |
| 2026-05-07 16:31 | 26.47083 | 49.79383 | 79 ft | 6 kts | 60° |